createdAt,value
2017-04-28T00:01:16.185Z,27.34
2017-04-28T00:03:46.993Z,28.06
2017-04-28T00:06:17.534Z,27.82
2017-04-28T00:08:48.061Z,27.50
2017-04-28T00:11:18.915Z,29.50
2017-04-28T00:13:49.717Z,26.52
2017-04-28T00:16:20.439Z,26.90
2017-04-28T00:18:51.319Z,27.64
2017-04-28T00:21:21.745Z,27.22
2017-04-28T00:23:52.568Z,27.40
2017-04-28T00:26:23.468Z,26.46
2017-04-28T00:28:54.157Z,27.02
2017-04-28T00:31:25.152Z,26.68
2017-04-28T00:33:56.055Z,26.60
2017-04-28T00:36:26.742Z,24.38
2017-04-28T00:38:57.672Z,25.02
2017-04-28T00:41:28.445Z,26.18
2017-04-28T00:43:59.437Z,27.06
2017-04-28T00:46:30.383Z,25.40
2017-04-28T00:49:01.336Z,26.14
2017-04-28T00:51:32.300Z,26.46
2017-04-28T00:54:03.197Z,26.44
2017-04-28T00:56:34.151Z,25.24
2017-04-28T00:59:05.029Z,26.58
2017-04-28T01:01:35.224Z,26.00
2017-04-28T01:04:05.965Z,27.72
2017-04-28T01:06:36.913Z,26.30
2017-04-28T01:09:07.739Z,26.66
2017-04-28T01:11:38.868Z,25.86
2017-04-28T01:14:09.829Z,26.88
2017-04-28T01:16:40.645Z,26.32
2017-04-28T01:19:11.562Z,25.82
2017-04-28T01:21:42.215Z,27.34
2017-04-28T01:24:13.053Z,26.50
2017-04-28T01:26:43.777Z,26.10
2017-04-28T01:29:14.691Z,25.70
2017-04-28T01:31:45.666Z,26.68
2017-04-28T01:34:17.215Z,27.08
2017-04-28T01:36:47.940Z,26.20
2017-04-28T01:39:18.906Z,28.42
2017-04-28T01:41:49.838Z,27.82
2017-04-28T01:44:20.835Z,28.98
2017-04-28T01:46:51.240Z,27.06
2017-04-28T01:49:22.130Z,26.26
2017-04-28T01:51:53.042Z,26.00
2017-04-28T01:54:23.917Z,26.92
2017-04-28T01:56:54.729Z,26.14
2017-04-28T01:59:25.582Z,26.12
2017-04-28T02:01:56.380Z,28.44
2017-04-28T02:04:27.068Z,27.18
2017-04-28T02:06:57.769Z,27.06
2017-04-28T02:09:28.680Z,28.24
2017-04-28T02:11:59.652Z,27.84
2017-04-28T02:14:30.366Z,28.60
2017-04-28T02:17:01.217Z,28.72
2017-04-28T02:19:32.009Z,26.22
2017-04-28T02:22:02.985Z,27.16
2017-04-28T02:24:34.044Z,26.86
2017-04-28T02:27:04.875Z,26.90
2017-04-28T02:29:35.809Z,26.38
2017-04-28T02:32:06.545Z,26.92
2017-04-28T02:34:37.485Z,27.16
2017-04-28T02:37:08.112Z,27.24
2017-04-28T02:39:39.056Z,26.08
2017-04-28T02:42:09.950Z,26.72
2017-04-28T02:44:40.876Z,26.98
2017-04-28T02:47:11.781Z,26.30
2017-04-28T02:49:42.221Z,25.68
2017-04-28T02:52:13.146Z,26.08
2017-04-28T02:54:43.928Z,27.30
2017-04-28T02:57:14.378Z,26.26
2017-04-28T02:59:45.282Z,26.68
2017-04-28T03:02:16.175Z,27.36
2017-04-28T03:04:47.193Z,27.26
2017-04-28T03:07:18.130Z,28.06
2017-04-28T03:09:49.034Z,26.78
2017-04-28T03:12:19.603Z,26.24
2017-04-28T03:14:50.465Z,26.56
2017-04-28T03:17:21.479Z,25.10
2017-04-28T03:19:52.481Z,25.10
2017-04-28T03:22:23.425Z,24.06
2017-04-28T03:24:54.212Z,25.56
2017-04-28T03:27:25.215Z,25.66
2017-04-28T03:29:56.133Z,25.08
2017-04-28T03:32:27.068Z,24.58
2017-04-28T03:34:57.793Z,26.00
2017-04-28T03:37:28.722Z,25.06
2017-04-28T03:39:59.554Z,25.64
2017-04-28T03:42:30.157Z,24.18
2017-04-28T03:45:01.190Z,25.42
2017-04-28T03:47:32.007Z,25.18
2017-04-28T03:50:02.566Z,25.84
2017-04-28T03:52:33.386Z,25.92
2017-04-28T03:55:04.426Z,25.24
2017-04-28T03:57:35.369Z,24.60
2017-04-28T04:00:06.362Z,24.10
2017-04-28T04:02:38.181Z,23.50
2017-04-28T04:05:10.478Z,22.64
2017-04-28T04:07:45.632Z,24.90
2017-04-28T04:10:16.165Z,24.76
2017-04-28T04:12:47.000Z,25.18
2017-04-28T04:15:18.552Z,25.02
2017-04-28T04:17:50.002Z,25.76
2017-04-28T04:20:21.475Z,24.56
2017-04-28T04:22:52.800Z,24.06
2017-04-28T04:25:24.371Z,22.52
2017-04-28T04:27:54.866Z,24.76
2017-04-28T04:30:25.982Z,24.88
2017-04-28T04:32:56.849Z,23.90
2017-04-28T04:35:27.845Z,27.18
2017-04-28T04:37:58.840Z,24.40
2017-04-28T04:40:31.302Z,26.20
2017-04-28T04:43:01.698Z,26.02
2017-04-28T04:45:32.715Z,24.90
2017-04-28T04:48:03.678Z,24.12
2017-04-28T04:50:34.532Z,24.06
2017-04-28T04:53:05.475Z,24.62
2017-04-28T04:55:36.421Z,25.50
2017-04-28T04:58:07.537Z,23.84
2017-04-28T05:00:38.144Z,24.72
2017-04-28T05:03:09.258Z,25.34
2017-04-28T05:05:40.280Z,26.76
2017-04-28T05:08:11.287Z,25.98
2017-04-28T05:10:42.152Z,24.94
2017-04-28T05:13:13.181Z,23.78
2017-04-28T05:15:43.716Z,24.54
2017-04-28T05:18:14.638Z,26.82
2017-04-28T05:20:45.601Z,23.48
2017-04-28T05:23:16.746Z,24.62
2017-04-28T05:25:47.742Z,23.38
2017-04-28T05:28:18.709Z,24.00
2017-04-28T05:30:49.557Z,23.94
2017-04-28T05:33:20.597Z,23.76
2017-04-28T05:35:51.568Z,22.00
2017-04-28T05:38:22.707Z,22.20
2017-04-28T05:40:53.601Z,20.92
2017-04-28T05:43:24.522Z,21.42
2017-04-28T05:45:55.199Z,20.66
2017-04-28T05:48:26.174Z,21.66
2017-04-28T05:50:56.968Z,20.40
2017-04-28T05:53:28.024Z,19.78
2017-04-28T05:55:59.033Z,19.02
2017-04-28T05:58:29.796Z,19.08
2017-04-28T06:01:00.415Z,19.12
2017-04-28T06:03:31.233Z,17.88
2017-04-28T06:06:02.182Z,18.60
2017-04-28T06:08:33.145Z,20.08
2017-04-28T06:11:04.160Z,19.48
2017-04-28T06:13:35.095Z,18.48
2017-04-28T06:16:06.138Z,17.30
2017-04-28T06:18:39.838Z,17.46
2017-04-28T06:21:12.302Z,16.62
2017-04-28T06:23:43.218Z,17.92
2017-04-28T06:26:13.714Z,17.52
2017-04-28T06:28:44.478Z,17.88
2017-04-28T06:31:15.414Z,15.62
2017-04-28T06:33:46.281Z,19.72
2017-04-28T06:36:17.309Z,17.56
2017-04-28T06:38:47.798Z,17.48
2017-04-28T06:41:18.588Z,17.86
2017-04-28T06:43:49.617Z,17.76
2017-04-28T06:46:20.630Z,17.92
2017-04-28T06:48:51.358Z,16.72
2017-04-28T06:51:22.284Z,16.36
2017-04-28T06:53:53.038Z,17.12
2017-04-28T06:56:23.531Z,16.36
2017-04-28T06:58:54.012Z,17.14
2017-04-28T07:01:24.499Z,15.84
2017-04-28T07:03:55.451Z,17.02
2017-04-28T07:06:26.382Z,17.30
2017-04-28T07:08:57.388Z,16.86
2017-04-28T07:11:28.274Z,16.88
2017-04-28T07:13:58.997Z,17.74
2017-04-28T07:16:30.048Z,17.02
2017-04-28T07:19:01.142Z,17.14
2017-04-28T07:21:32.026Z,16.62
2017-04-28T07:24:03.060Z,17.54
2017-04-28T07:26:33.657Z,17.64
2017-04-28T07:29:04.736Z,17.06
2017-04-28T07:31:35.777Z,16.08
2017-04-28T07:34:06.345Z,16.74
2017-04-28T07:36:37.301Z,18.60
2017-04-28T07:39:08.276Z,19.30
2017-04-28T07:41:38.802Z,18.52
2017-04-28T07:44:09.651Z,18.62
2017-04-28T07:46:40.675Z,19.52
2017-04-28T07:49:11.150Z,17.46
2017-04-28T07:51:41.901Z,18.04
2017-04-28T07:54:12.644Z,18.92
2017-04-28T07:56:43.526Z,18.50
2017-04-28T07:59:14.543Z,18.72
2017-04-28T08:01:45.513Z,18.54
2017-04-28T08:04:16.523Z,18.46
2017-04-28T08:06:47.433Z,17.82
2017-04-28T08:09:17.905Z,18.26
2017-04-28T08:11:48.888Z,16.16
2017-04-28T08:14:20.238Z,17.20
2017-04-28T08:16:52.037Z,16.18
2017-04-28T08:19:23.192Z,16.86
2017-04-28T08:21:54.472Z,15.40
2017-04-28T08:24:25.660Z,16.98
2017-04-28T08:26:57.027Z,15.14
2017-04-28T08:29:28.411Z,14.68
2017-04-28T08:31:59.462Z,15.12
2017-04-28T08:34:30.590Z,15.84
2017-04-28T08:37:01.970Z,13.64
2017-04-28T08:39:33.265Z,12.90
2017-04-28T08:42:05.159Z,14.92
2017-04-28T08:44:36.253Z,13.04
2017-04-28T08:47:08.049Z,14.70
2017-04-28T08:49:39.002Z,13.96
2017-04-28T08:52:10.113Z,12.64
2017-04-28T08:54:41.356Z,12.46
2017-04-28T08:57:12.625Z,12.70
2017-04-28T08:59:44.251Z,12.40
2017-04-28T09:02:15.204Z,13.16
2017-04-28T09:04:46.254Z,13.58
2017-04-28T09:07:17.727Z,13.40
2017-04-28T09:09:48.822Z,13.08
2017-04-28T09:12:20.259Z,12.38
2017-04-28T09:14:51.701Z,12.38
2017-04-28T09:17:23.156Z,12.30
2017-04-28T09:19:54.263Z,12.56
2017-04-28T09:22:25.325Z,12.60
2017-04-28T09:24:56.866Z,12.52
2017-04-28T09:27:28.267Z,13.12
2017-04-28T09:29:59.771Z,11.90
2017-04-28T09:32:31.173Z,11.94
2017-04-28T09:35:02.489Z,12.92
2017-04-28T09:37:33.925Z,12.46
2017-04-28T09:40:05.356Z,13.40
2017-04-28T09:42:36.451Z,13.72
2017-04-28T09:45:07.405Z,12.06
2017-04-28T09:47:38.150Z,11.78
2017-04-28T09:50:09.048Z,13.54
2017-04-28T09:52:40.023Z,13.02
2017-04-28T09:55:11.556Z,12.94
2017-04-28T09:57:42.311Z,13.32
2017-04-28T10:00:13.133Z,12.56
2017-04-28T10:02:44.071Z,12.34
2017-04-28T10:05:15.065Z,12.90
2017-04-28T10:07:45.848Z,12.42
2017-04-28T10:10:16.998Z,14.16
2017-04-28T10:12:48.865Z,13.44
2017-04-28T10:15:19.872Z,13.54
2017-04-28T10:17:50.831Z,13.98
2017-04-28T10:20:21.812Z,12.56
2017-04-28T10:22:52.764Z,13.20
2017-04-28T10:25:24.253Z,12.48
2017-04-28T10:27:55.803Z,11.94
2017-04-28T10:30:27.263Z,11.08
2017-04-28T10:32:58.775Z,11.88
2017-04-28T10:35:30.057Z,12.06
2017-04-28T10:38:01.261Z,11.90
2017-04-28T10:40:32.851Z,12.62
2017-04-28T10:43:04.207Z,11.52
2017-04-28T10:45:36.299Z,11.06
2017-04-28T10:48:07.280Z,11.30
2017-04-28T10:50:38.541Z,11.98
2017-04-28T10:53:09.924Z,13.30
2017-04-28T10:55:41.121Z,12.88
2017-04-28T10:58:12.387Z,11.12
2017-04-28T11:00:43.741Z,10.36
2017-04-28T11:03:14.789Z,12.20
2017-04-28T11:05:46.311Z,10.74
2017-04-28T11:08:17.269Z,9.92
2017-04-28T11:10:48.877Z,9.70
2017-04-28T11:13:19.891Z,10.08
2017-04-28T11:15:50.997Z,10.00
2017-04-28T11:18:22.419Z,10.24
2017-04-28T11:20:53.422Z,9.02
2017-04-28T11:23:24.872Z,10.02
2017-04-28T11:25:56.010Z,9.98
2017-04-28T11:28:27.393Z,9.78
2017-04-28T11:30:58.434Z,9.12
2017-04-28T11:33:30.408Z,7.96
2017-04-28T11:36:02.528Z,8.88
2017-04-28T11:38:33.660Z,8.10
2017-04-28T11:41:04.587Z,8.06
2017-04-28T11:43:36.008Z,8.26
2017-04-28T11:46:07.119Z,8.68
2017-04-28T11:48:38.229Z,7.08
2017-04-28T11:51:09.545Z,7.68
2017-04-28T11:53:40.674Z,7.70
2017-04-28T11:56:12.213Z,7.90
2017-04-28T11:58:43.723Z,7.90
2017-04-28T12:01:15.099Z,7.66
2017-04-28T12:03:46.250Z,7.30
2017-04-28T12:06:17.173Z,7.36
2017-04-28T12:08:48.225Z,6.90
2017-04-28T12:11:19.789Z,7.10
2017-04-28T12:13:51.345Z,7.56
2017-04-28T12:16:22.635Z,8.16
2017-04-28T12:18:53.787Z,8.10
2017-04-28T12:21:24.921Z,8.64
2017-04-28T12:23:56.269Z,8.20
2017-04-28T12:26:27.404Z,7.92
2017-04-28T12:28:58.856Z,8.48
2017-04-28T12:31:30.190Z,8.12
2017-04-28T12:34:00.993Z,8.28
2017-04-28T12:36:31.669Z,6.86
2017-04-28T12:39:02.490Z,6.74
2017-04-28T12:41:33.230Z,6.92
2017-04-28T12:44:03.725Z,6.46
2017-04-28T12:46:35.625Z,5.56
2017-04-28T12:49:06.981Z,5.60
2017-04-28T12:51:37.871Z,6.08
2017-04-28T12:54:10.555Z,5.56
2017-04-28T12:56:42.212Z,5.88
2017-04-28T12:59:13.333Z,5.98
2017-04-28T13:01:44.474Z,6.62
2017-04-28T13:04:15.528Z,6.96
2017-04-28T13:06:47.971Z,6.76
2017-04-28T13:09:20.514Z,5.86
2017-04-28T13:11:52.121Z,5.92
2017-04-28T13:14:22.827Z,6.70
2017-04-28T13:16:53.789Z,5.70
2017-04-28T13:19:24.730Z,6.12
2017-04-28T13:21:55.613Z,5.26
2017-04-28T13:24:26.507Z,6.04
2017-04-28T13:26:57.494Z,4.94
2017-04-28T13:29:28.375Z,6.04
2017-04-28T13:31:59.327Z,6.88
2017-04-28T13:34:30.239Z,6.92
2017-04-28T13:37:01.178Z,6.98
2017-04-28T13:39:31.917Z,6.24
2017-04-28T13:42:02.851Z,5.84
2017-04-28T13:44:33.750Z,6.36
2017-04-28T13:47:04.435Z,6.18
2017-04-28T13:49:35.414Z,6.30
2017-04-28T13:52:06.328Z,5.18
2017-04-28T13:54:37.111Z,5.50
2017-04-28T13:57:07.690Z,5.82
2017-04-28T13:59:38.524Z,6.36
2017-04-28T14:02:09.450Z,7.00
2017-04-28T14:04:40.258Z,6.30
2017-04-28T14:07:11.118Z,7.26
2017-04-28T14:09:44.532Z,7.52
2017-04-28T14:12:16.474Z,6.68
2017-04-28T14:14:47.438Z,7.16
2017-04-28T14:17:18.253Z,7.20
2017-04-28T14:19:49.977Z,7.72
2017-04-28T14:22:20.778Z,6.70
2017-04-28T14:24:51.348Z,7.10
2017-04-28T14:27:22.067Z,6.60
2017-04-28T14:29:53.186Z,7.20
2017-04-28T14:32:23.718Z,7.14
2017-04-28T14:34:54.658Z,6.26
2017-04-28T14:37:25.608Z,6.58
2017-04-28T14:39:56.543Z,6.38
2017-04-28T14:42:27.447Z,5.08
2017-04-28T14:44:58.257Z,5.80
2017-04-28T14:47:29.024Z,5.46
2017-04-28T14:49:59.956Z,5.22
2017-04-28T14:52:30.826Z,6.08
2017-04-28T14:55:01.871Z,5.74
2017-04-28T14:57:32.880Z,5.04
2017-04-28T15:00:03.860Z,5.48
2017-04-28T15:02:34.809Z,5.36
2017-04-28T15:05:05.263Z,4.70
2017-04-28T15:07:37.256Z,5.88
2017-04-28T15:10:07.825Z,5.26
2017-04-28T15:12:38.735Z,5.88
2017-04-28T15:15:09.408Z,5.44
2017-04-28T15:17:41.264Z,5.60
2017-04-28T15:20:12.297Z,5.02
2017-04-28T15:22:42.822Z,5.30
2017-04-28T15:25:13.562Z,5.34
2017-04-28T15:27:44.369Z,5.66
2017-04-28T15:30:14.931Z,5.36
2017-04-28T15:32:45.829Z,5.12
2017-04-28T15:35:16.830Z,4.80
2017-04-28T15:37:47.551Z,5.16
2017-04-28T15:40:18.509Z,5.28
2017-04-28T15:42:49.648Z,5.10
2017-04-28T15:45:20.953Z,5.36
2017-04-28T15:47:51.884Z,5.58
2017-04-28T15:50:22.860Z,5.60
2017-04-28T15:52:53.945Z,4.54
2017-04-28T15:55:25.010Z,4.30
2017-04-28T15:57:55.854Z,4.76
2017-04-28T16:00:26.033Z,5.48
2017-04-28T16:02:56.273Z,4.72
2017-04-28T16:05:26.802Z,5.08
2017-04-28T16:07:57.095Z,5.72
2017-04-28T16:10:27.601Z,6.46
2017-04-28T16:12:59.270Z,5.52
2017-04-28T16:15:30.236Z,6.02
2017-04-28T16:18:01.063Z,5.54
2017-04-28T16:20:31.584Z,5.36
2017-04-28T16:23:02.397Z,6.36
2017-04-28T16:25:32.886Z,5.96
2017-04-28T16:28:03.704Z,5.70
2017-04-28T16:30:34.532Z,6.06
2017-04-28T16:33:05.410Z,6.82
2017-04-28T16:35:36.020Z,5.76
2017-04-28T16:38:06.583Z,6.16
2017-04-28T16:40:37.601Z,6.00
2017-04-28T16:43:08.635Z,5.14
2017-04-28T16:45:39.446Z,5.54
2017-04-28T16:48:10.341Z,5.12
2017-04-28T16:50:41.220Z,5.08
2017-04-28T16:53:11.697Z,5.60
2017-04-28T16:55:42.234Z,5.22
2017-04-28T16:58:13.050Z,5.30
2017-04-28T17:00:43.925Z,6.34
2017-04-28T17:03:14.362Z,5.70
2017-04-28T17:05:45.274Z,5.82
2017-04-28T17:08:15.513Z,6.18
2017-04-28T17:10:46.007Z,5.08
2017-04-28T17:13:16.751Z,6.32
2017-04-28T17:15:48.276Z,5.86
2017-04-28T17:18:22.497Z,6.20
2017-04-28T17:20:58.977Z,5.62
2017-04-28T17:23:30.420Z,5.74
2017-04-28T17:26:01.370Z,5.22
2017-04-28T17:28:32.198Z,5.28
2017-04-28T17:31:04.926Z,6.64
2017-04-28T17:33:37.671Z,5.86
2017-04-28T17:36:10.655Z,6.40
2017-04-28T17:38:43.972Z,5.18
2017-04-28T17:41:14.835Z,6.10
2017-04-28T17:43:46.238Z,5.68
2017-04-28T17:46:18.078Z,5.84
2017-04-28T17:48:48.925Z,6.54
2017-04-28T17:51:19.869Z,5.44
2017-04-28T17:53:50.552Z,6.00
2017-04-28T17:56:21.351Z,6.32
2017-04-28T17:58:52.294Z,6.58
2017-04-28T18:01:22.742Z,5.88
2017-04-28T18:03:53.571Z,6.22
2017-04-28T18:06:25.009Z,5.88
2017-04-28T18:08:55.718Z,6.68
2017-04-28T18:11:26.785Z,5.54
2017-04-28T18:13:57.622Z,5.92
2017-04-28T18:16:28.865Z,5.64
2017-04-28T18:18:59.746Z,5.74
2017-04-28T18:21:30.618Z,6.20
2017-04-28T18:24:01.472Z,5.16
2017-04-28T18:26:32.398Z,4.58
2017-04-28T18:29:03.242Z,5.40
2017-04-28T18:31:34.025Z,4.92
2017-04-28T18:34:04.989Z,5.32
2017-04-28T18:36:35.442Z,5.66
2017-04-28T18:39:05.801Z,5.34
2017-04-28T18:41:36.793Z,4.88
2017-04-28T18:44:07.913Z,4.82
2017-04-28T18:46:38.819Z,5.30
2017-04-28T18:49:09.574Z,5.28
2017-04-28T18:51:40.641Z,5.28
2017-04-28T18:54:11.619Z,4.42
2017-04-28T18:56:42.557Z,5.68
2017-04-28T18:59:13.449Z,5.74
2017-04-28T19:01:44.259Z,5.86
2017-04-28T19:04:15.213Z,5.70
2017-04-28T19:06:46.120Z,5.88
2017-04-28T19:09:17.571Z,5.52
2017-04-28T19:11:50.009Z,6.04
2017-04-28T19:14:20.870Z,5.48
2017-04-28T19:16:51.777Z,5.78
2017-04-28T19:19:25.246Z,5.38
2017-04-28T19:21:56.905Z,5.70
2017-04-28T19:24:30.624Z,6.82
2017-04-28T19:27:02.952Z,6.06
2017-04-28T19:29:33.676Z,5.82
2017-04-28T19:32:04.848Z,6.62
2017-04-28T19:34:35.558Z,5.38
2017-04-28T19:37:06.419Z,6.14
2017-04-28T19:39:37.147Z,6.26
2017-04-28T19:42:08.127Z,6.32
2017-04-28T19:44:38.499Z,5.86
2017-04-28T19:47:09.550Z,7.20
2017-04-28T19:49:40.571Z,5.42
2017-04-28T19:52:11.062Z,6.34
2017-04-28T19:54:41.950Z,6.20
2017-04-28T19:57:12.882Z,6.60
2017-04-28T19:59:43.862Z,7.80
2017-04-28T20:02:14.797Z,7.32
2017-04-28T20:04:45.776Z,6.84
2017-04-28T20:07:16.471Z,6.96
2017-04-28T20:09:47.502Z,6.86
2017-04-28T20:12:18.333Z,7.00
2017-04-28T20:14:49.046Z,7.16
2017-04-28T20:17:20.031Z,7.04
2017-04-28T20:19:50.971Z,7.14
2017-04-28T20:22:21.957Z,7.16
2017-04-28T20:24:52.894Z,7.36
2017-04-28T20:27:23.812Z,8.36
2017-04-28T20:29:54.735Z,7.10
2017-04-28T20:32:25.723Z,6.94
2017-04-28T20:34:56.300Z,6.82
2017-04-28T20:39:47.288Z,7.30
2017-04-28T20:42:17.983Z,6.98
2017-04-28T20:44:48.667Z,7.10
2017-04-28T20:47:18.923Z,7.82
2017-04-28T20:49:49.825Z,7.40
2017-04-28T20:52:20.633Z,7.28
2017-04-28T20:54:51.312Z,7.44
2017-04-28T20:57:22.062Z,7.66
2017-04-28T20:59:53.114Z,7.60
2017-04-28T21:02:23.889Z,6.70
2017-04-28T21:04:54.477Z,8.00
2017-04-28T21:07:25.502Z,7.08
2017-04-28T21:09:56.360Z,8.26
2017-04-28T21:12:26.990Z,7.10
2017-04-28T21:14:57.698Z,7.26
2017-04-28T21:17:28.525Z,6.90
2017-04-28T21:19:59.434Z,7.00
2017-04-28T21:22:30.029Z,7.36
2017-04-28T21:25:00.666Z,7.44
2017-04-28T21:27:31.704Z,7.48
2017-04-28T21:30:02.751Z,8.84
2017-04-28T21:32:33.669Z,9.00
2017-04-28T21:35:04.411Z,9.26
2017-04-28T21:37:35.374Z,8.72
2017-04-28T21:40:06.346Z,8.64
2017-04-28T21:42:40.129Z,9.76
2017-04-28T21:45:11.912Z,9.34
2017-04-28T21:47:45.948Z,10.54
2017-04-28T21:50:17.953Z,10.04
2017-04-28T21:52:50.724Z,9.42
2017-04-28T21:55:25.216Z,10.32
2017-04-28T21:57:58.257Z,12.28
2017-04-28T22:00:29.932Z,10.48
2017-04-28T22:03:01.580Z,10.02
2017-04-28T22:05:34.694Z,10.18
2017-04-28T22:08:05.660Z,9.84
2017-04-28T22:10:39.252Z,10.14
2017-04-28T22:13:12.611Z,10.42
2017-04-28T22:15:51.313Z,11.14
2017-04-28T22:18:22.863Z,10.96
2017-04-28T22:20:53.757Z,11.32
2017-04-28T22:23:24.670Z,11.06
2017-04-28T22:25:55.557Z,11.76
2017-04-28T22:28:28.282Z,10.90
2017-04-28T22:30:59.620Z,10.94
2017-04-28T22:33:31.198Z,10.42
2017-04-28T22:36:02.132Z,11.50
2017-04-28T22:38:32.625Z,10.68
2017-04-28T22:41:03.360Z,12.40
2017-04-28T22:43:34.190Z,11.10
2017-04-28T22:46:05.085Z,11.34
2017-04-28T22:48:35.713Z,10.52
2017-04-28T22:51:06.641Z,11.12
2017-04-28T22:53:37.537Z,11.08
2017-04-28T22:56:08.369Z,10.72
2017-04-28T22:58:39.259Z,12.08
2017-04-28T23:01:10.179Z,11.26
2017-04-28T23:03:40.547Z,11.80
2017-04-28T23:06:12.293Z,12.48
2017-04-28T23:08:43.092Z,12.12
2017-04-28T23:11:13.817Z,11.60
2017-04-28T23:13:44.448Z,12.48
2017-04-28T23:16:14.767Z,11.70
2017-04-28T23:18:45.631Z,13.44
2017-04-28T23:21:16.309Z,13.52
2017-04-28T23:23:47.191Z,13.60
2017-04-28T23:26:17.667Z,14.18
2017-04-28T23:28:48.641Z,15.28
2017-04-28T23:31:19.474Z,16.02
2017-04-28T23:33:51.295Z,15.72
2017-04-28T23:36:22.122Z,16.58
2017-04-28T23:38:53.085Z,15.80
2017-04-28T23:41:23.969Z,15.38
2017-04-28T23:43:54.821Z,15.10
2017-04-28T23:46:25.728Z,15.80
2017-04-28T23:48:56.609Z,16.40
2017-04-28T23:51:28.345Z,16.90
2017-04-28T23:53:59.274Z,17.04
2017-04-28T23:56:30.143Z,17.16
2017-04-28T23:59:01.361Z,15.80
